Aviation Digital Data Service (ADDS)

Output produced by METARs form (1007 UTC 24 March 2017)
found at http://www.aviationweather.gov/adds/metars/
 
KBID 240956Z AUTO 22005KT 10SM FEW120 01/M03 A3051 RMK AO2 SLP337 T00061033 FZRANO
KUUU 240953Z AUTO 15003KT 10SM SCT110 M04/M08 A3049 RMK AO2 SLP326 T10391078
KSFZ 240956Z AUTO 00000KT 10SM SCT110 M04/M13 A3046 RMK AO2 SLP338 T10391128 FZRANO
KPVD 240951Z 00000KT 10SM FEW120 FEW300 M04/M13 A3050 RMK AO2 SLP328 T10391128
KPVD 240849Z 2409/2506 22005KT P6SM FEW110 OVC250 
     FM241500 21012G22KT P6SM OVC090 
     FM241800 21015G28KT P6SM VCSH OVC060 
     FM242100 21014G32KT P6SM OVC040 
     FM250500 24009KT P6SM OVC040
       
KWST 240953Z AUTO 00000KT 10SM BKN120 M05/M08 A3051 RMK AO2 SLP332 T10501078